createdAt,value
2017-12-01T00:00:23.721Z,0.74
2017-12-01T00:01:26.866Z,0.71
2017-12-01T00:02:29.829Z,0.73
2017-12-01T00:03:32.967Z,0.73
2017-12-01T00:04:36.211Z,0.85
2017-12-01T00:05:39.328Z,0.94
2017-12-01T00:06:42.241Z,0.82
2017-12-01T00:07:45.106Z,0.68
2017-12-01T00:08:48.060Z,0.93
2017-12-01T00:09:50.942Z,0.85
2017-12-01T00:10:53.833Z,0.75
2017-12-01T00:11:57.078Z,0.73
2017-12-01T00:12:59.886Z,0.76
2017-12-01T00:14:02.653Z,0.79
2017-12-01T00:15:05.599Z,0.83
2017-12-01T00:16:08.763Z,0.84
2017-12-01T00:17:11.599Z,0.83
2017-12-01T00:18:14.931Z,0.83
2017-12-01T00:19:17.922Z,0.85
2017-12-01T00:20:20.830Z,0.85
2017-12-01T00:21:23.936Z,0.80
2017-12-01T00:22:26.917Z,0.79
2017-12-01T00:23:29.919Z,0.78
2017-12-01T00:24:33.629Z,0.79
2017-12-01T00:25:36.557Z,0.77
2017-12-01T00:26:39.667Z,0.70
2017-12-01T00:27:42.603Z,0.70
2017-12-01T00:28:45.597Z,0.67
2017-12-01T00:29:48.540Z,0.82
2017-12-01T00:30:52.279Z,0.72
2017-12-01T00:31:55.524Z,0.87
2017-12-01T00:32:58.442Z,0.73
2017-12-01T00:34:01.391Z,0.91
2017-12-01T00:35:04.327Z,0.77
2017-12-01T00:36:07.289Z,0.86
2017-12-01T00:37:10.542Z,0.80
2017-12-01T00:38:13.508Z,0.78
2017-12-01T00:39:16.400Z,0.82
2017-12-01T00:40:19.337Z,0.78
2017-12-01T00:41:22.300Z,0.86
2017-12-01T00:42:25.325Z,0.84
2017-12-01T00:43:28.599Z,0.92
2017-12-01T00:44:31.622Z,0.93
2017-12-01T00:45:34.859Z,0.87
2017-12-01T00:46:37.827Z,0.88
2017-12-01T00:47:40.790Z,0.90
2017-12-01T00:48:43.745Z,0.90
2017-12-01T00:49:46.989Z,0.89
2017-12-01T00:50:50.085Z,0.80
2017-12-01T00:51:53.302Z,0.80
2017-12-01T00:52:56.198Z,0.86
2017-12-01T00:53:59.275Z,0.78
2017-12-01T00:55:02.115Z,0.75
2017-12-01T00:56:05.233Z,0.66
2017-12-01T00:57:08.158Z,0.66
2017-12-01T00:58:11.062Z,0.67
2017-12-01T00:59:14.132Z,0.72
2017-12-01T01:00:17.113Z,0.73
2017-12-01T01:01:20.104Z,0.69
2017-12-01T01:02:23.360Z,0.75
2017-12-01T01:03:26.417Z,0.87
2017-12-01T01:04:29.570Z,0.79
2017-12-01T01:05:32.538Z,0.78
2017-12-01T01:06:35.959Z,0.77
2017-12-01T01:07:39.067Z,0.73
2017-12-01T01:08:42.587Z,0.77
2017-12-01T01:09:45.647Z,1.04
2017-12-01T01:10:48.527Z,0.94
2017-12-01T01:11:51.702Z,0.89
2017-12-01T01:12:54.598Z,0.97
2017-12-01T01:13:57.540Z,0.95
2017-12-01T01:15:00.485Z,0.96
2017-12-01T01:16:03.431Z,0.95
2017-12-01T01:17:06.361Z,0.94
2017-12-01T01:18:09.566Z,0.67
2017-12-01T01:19:12.508Z,0.75
2017-12-01T01:20:15.887Z,0.79
2017-12-01T01:21:18.813Z,1.07
2017-12-01T01:22:21.822Z,1.01
2017-12-01T01:23:24.767Z,0.96
2017-12-01T01:24:27.695Z,1.06
2017-12-01T01:25:30.663Z,0.97
2017-12-01T01:26:33.873Z,0.77
2017-12-01T01:27:36.794Z,0.80
2017-12-01T01:28:39.714Z,0.93
2017-12-01T01:29:42.641Z,0.99
2017-12-01T01:30:45.487Z,1.00
2017-12-01T01:31:48.342Z,0.77
2017-12-01T01:32:51.708Z,0.67
2017-12-01T01:33:54.759Z,0.78
2017-12-01T01:34:57.812Z,0.69
2017-12-01T01:36:00.639Z,0.67
2017-12-01T01:37:03.546Z,0.73
2017-12-01T01:38:06.396Z,0.81
2017-12-01T01:39:09.649Z,0.94
2017-12-01T01:40:12.539Z,0.92
2017-12-01T01:41:15.364Z,0.86
2017-12-01T01:42:18.178Z,0.96
2017-12-01T01:43:21.017Z,0.94
2017-12-01T01:44:23.855Z,0.95
2017-12-01T01:45:27.011Z,0.97
2017-12-01T01:46:29.867Z,1.02
2017-12-01T01:47:32.694Z,0.82
2017-12-01T01:48:35.544Z,0.79
2017-12-01T01:49:38.389Z,0.94
2017-12-01T01:50:41.243Z,0.97
2017-12-01T01:51:44.420Z,0.89
2017-12-01T01:52:47.407Z,0.92
2017-12-01T01:53:50.361Z,0.92
2017-12-01T01:54:53.285Z,0.97
2017-12-01T01:55:56.228Z,0.95
2017-12-01T01:56:59.128Z,0.99
2017-12-01T01:58:02.717Z,0.84
2017-12-01T01:59:05.626Z,0.77
2017-12-01T02:00:08.546Z,0.80
2017-12-01T02:01:11.556Z,0.93
2017-12-01T02:02:16.390Z,0.91
2017-12-01T02:03:19.499Z,0.97
2017-12-01T02:04:23.150Z,1.14
2017-12-01T02:05:26.082Z,1.18
2017-12-01T02:06:29.092Z,1.09
2017-12-01T02:07:32.001Z,1.11
2017-12-01T02:08:34.930Z,1.05
2017-12-01T02:09:37.851Z,0.92
2017-12-01T02:10:41.064Z,0.87
2017-12-01T02:11:44.009Z,0.89
2017-12-01T02:12:46.914Z,0.84
2017-12-01T02:13:49.793Z,0.82
2017-12-01T02:14:52.653Z,0.74
2017-12-01T02:15:55.499Z,0.95
2017-12-01T02:16:58.641Z,0.89
2017-12-01T02:18:03.080Z,0.88
2017-12-01T02:19:06.011Z,0.78
2017-12-01T02:20:08.896Z,0.73
2017-12-01T02:21:14.577Z,0.88
2017-12-01T02:22:17.414Z,0.99
2017-12-01T02:23:20.638Z,0.97
2017-12-01T02:24:23.545Z,0.98
2017-12-01T02:25:26.444Z,1.01
2017-12-01T02:26:29.352Z,0.70
2017-12-01T02:27:32.302Z,0.66
2017-12-01T02:28:35.234Z,0.67
2017-12-01T02:29:38.456Z,0.78
2017-12-01T02:30:41.385Z,0.76
2017-12-01T02:31:44.361Z,0.81
2017-12-01T02:32:47.288Z,0.66
2017-12-01T02:33:50.308Z,0.73
2017-12-01T02:34:53.264Z,0.71
2017-12-01T02:35:56.200Z,0.61
2017-12-01T02:36:59.101Z,0.63
2017-12-01T02:38:02.299Z,0.78
2017-12-01T02:39:05.463Z,0.99
2017-12-01T02:40:08.533Z,0.96
2017-12-01T02:41:11.663Z,0.95
2017-12-01T02:42:14.607Z,0.90
2017-12-01T02:43:17.508Z,0.69
2017-12-01T02:44:20.562Z,0.73
2017-12-01T02:45:23.489Z,0.67
2017-12-01T02:46:26.441Z,0.70
2017-12-01T02:47:29.815Z,0.81
2017-12-01T02:48:32.716Z,0.70
2017-12-01T02:49:35.682Z,0.71
2017-12-01T02:50:38.587Z,0.61
2017-12-01T02:51:41.591Z,0.55
2017-12-01T02:52:44.542Z,0.52
2017-12-01T02:53:47.746Z,0.58
2017-12-01T02:54:50.690Z,0.46
2017-12-01T02:55:53.612Z,0.38
2017-12-01T02:56:56.505Z,0.54
2017-12-01T02:57:59.610Z,0.44
2017-12-01T02:59:02.498Z,0.62
2017-12-01T03:00:05.721Z,0.50
2017-12-01T03:01:08.602Z,0.43
2017-12-01T03:02:11.544Z,0.41
2017-12-01T03:03:14.476Z,0.47
2017-12-01T03:04:17.394Z,0.36
2017-12-01T03:05:20.329Z,0.34
2017-12-01T03:06:23.531Z,0.35
2017-12-01T03:07:26.452Z,0.39
2017-12-01T03:08:29.502Z,0.24
2017-12-01T03:09:32.521Z,0.26
2017-12-01T03:10:35.649Z,0.34
2017-12-01T03:11:38.636Z,0.54
2017-12-01T03:12:41.845Z,0.48
2017-12-01T03:13:44.765Z,0.32
2017-12-01T03:14:47.703Z,0.23
2017-12-01T03:15:50.685Z,0.17
2017-12-01T03:16:53.645Z,0.29
2017-12-01T03:17:56.598Z,0.47
2017-12-01T03:18:59.959Z,0.40
2017-12-01T03:20:03.092Z,0.38
2017-12-01T03:21:06.277Z,0.25
2017-12-01T03:22:09.278Z,0.29
2017-12-01T03:23:12.259Z,0.30
2017-12-01T03:24:15.264Z,0.47
2017-12-01T03:25:18.442Z,0.37
2017-12-01T03:26:21.406Z,0.45
2017-12-01T03:27:24.342Z,0.51
2017-12-01T03:28:27.317Z,0.48
2017-12-01T03:29:30.244Z,0.51
2017-12-01T03:30:33.186Z,0.48
2017-12-01T03:31:36.408Z,0.54
2017-12-01T03:32:39.375Z,0.49
2017-12-01T03:33:42.317Z,0.52
2017-12-01T03:34:45.317Z,0.38
2017-12-01T03:35:48.311Z,0.47
2017-12-01T03:36:51.231Z,0.59
2017-12-01T03:37:54.401Z,0.58
2017-12-01T03:38:57.251Z,0.51
2017-12-01T03:40:00.209Z,0.54
2017-12-01T03:41:03.162Z,0.50
2017-12-01T03:42:06.141Z,0.40
2017-12-01T03:43:09.131Z,0.51
2017-12-01T03:44:12.413Z,0.50
2017-12-01T03:45:15.560Z,0.62
2017-12-01T03:46:18.861Z,0.71
2017-12-01T03:47:21.977Z,0.56
2017-12-01T03:48:25.119Z,0.66
2017-12-01T03:49:28.103Z,0.65
2017-12-01T03:50:31.315Z,0.63
2017-12-01T03:51:34.225Z,0.62
2017-12-01T03:52:37.173Z,0.50
2017-12-01T03:53:40.102Z,0.31
2017-12-01T03:54:43.043Z,0.25
2017-12-01T03:55:45.980Z,0.26
2017-12-01T03:56:49.260Z,0.25
2017-12-01T03:57:52.178Z,0.27
2017-12-01T03:58:55.102Z,0.24
2017-12-01T03:59:58.087Z,0.37
2017-12-01T04:01:01.123Z,0.55
2017-12-01T04:02:04.062Z,0.37
2017-12-01T04:03:07.296Z,0.42
2017-12-01T04:04:10.252Z,0.45
2017-12-01T04:05:16.701Z,0.40
2017-12-01T04:06:19.712Z,0.35
2017-12-01T04:07:22.857Z,0.28
2017-12-01T04:08:25.886Z,0.28
2017-12-01T04:09:28.935Z,0.31
2017-12-01T04:10:31.918Z,0.40
2017-12-01T04:11:34.845Z,0.41
2017-12-01T04:12:37.710Z,0.59
2017-12-01T04:13:40.939Z,0.55
2017-12-01T04:14:44.206Z,0.47
2017-12-01T04:15:47.426Z,0.43
2017-12-01T04:16:50.385Z,0.30
2017-12-01T04:17:53.325Z,0.30
2017-12-01T04:18:56.252Z,0.26
2017-12-01T04:19:59.152Z,0.24
2017-12-01T04:21:02.100Z,0.23
2017-12-01T04:22:05.321Z,0.29
2017-12-01T04:23:08.280Z,0.33
2017-12-01T04:24:11.226Z,0.37
2017-12-01T04:25:14.206Z,0.28
2017-12-01T04:26:17.162Z,0.24
2017-12-01T04:27:20.174Z,0.27
2017-12-01T04:28:23.348Z,0.35
2017-12-01T04:29:26.266Z,0.37
2017-12-01T04:30:30.197Z,0.56
2017-12-01T04:31:33.345Z,0.60
2017-12-01T04:32:36.557Z,0.47
2017-12-01T04:33:39.524Z,0.47
2017-12-01T04:34:42.472Z,0.37
2017-12-01T04:35:45.433Z,0.33
2017-12-01T04:36:48.349Z,0.25
2017-12-01T04:37:51.351Z,0.27
2017-12-01T04:38:54.275Z,0.37
2017-12-01T04:39:57.480Z,0.46
2017-12-01T04:41:00.445Z,0.48
2017-12-01T04:42:03.477Z,0.42
2017-12-01T04:43:06.404Z,0.46
2017-12-01T04:44:09.469Z,0.45
2017-12-01T04:45:12.449Z,0.55
2017-12-01T04:46:15.722Z,0.48
2017-12-01T04:47:18.710Z,0.47
2017-12-01T04:48:21.701Z,0.50
2017-12-01T04:49:24.875Z,0.54
2017-12-01T04:50:27.933Z,0.61
2017-12-01T04:51:31.200Z,0.66
2017-12-01T04:52:34.212Z,0.66
2017-12-01T04:53:37.054Z,0.64
2017-12-01T04:54:39.908Z,0.65
2017-12-01T04:55:42.729Z,0.51
2017-12-01T04:56:45.563Z,0.42
2017-12-01T04:57:48.680Z,0.41
2017-12-01T04:58:52.553Z,0.41
2017-12-01T04:59:55.476Z,0.37
2017-12-01T05:00:58.414Z,0.39
2017-12-01T05:02:01.378Z,0.45
2017-12-01T05:03:04.306Z,0.40
2017-12-01T05:04:07.267Z,0.44
2017-12-01T05:05:10.178Z,0.36
2017-12-01T05:06:13.166Z,0.30
2017-12-01T05:07:16.143Z,0.37
2017-12-01T05:08:19.077Z,0.32
2017-12-01T05:09:22.610Z,0.37
2017-12-01T05:10:25.548Z,0.31
2017-12-01T05:11:28.481Z,0.30
2017-12-01T05:12:31.459Z,0.30
2017-12-01T05:13:34.401Z,0.37
2017-12-01T05:14:37.429Z,0.44
2017-12-01T05:15:40.605Z,0.47
2017-12-01T05:16:43.532Z,0.51
2017-12-01T05:17:46.449Z,0.52
2017-12-01T05:18:49.502Z,0.44
2017-12-01T05:19:52.428Z,0.39
2017-12-01T05:20:55.463Z,0.39
2017-12-01T05:21:58.718Z,0.28
2017-12-01T05:23:01.630Z,0.33
2017-12-01T05:24:04.656Z,0.40
2017-12-01T05:25:07.671Z,0.36
2017-12-01T05:26:10.646Z,0.31
2017-12-01T05:27:13.604Z,0.40
2017-12-01T05:28:19.838Z,0.63
2017-12-01T05:29:22.698Z,0.60
2017-12-01T05:30:25.535Z,0.54
2017-12-01T05:31:28.484Z,0.40
2017-12-01T05:32:31.441Z,0.39
2017-12-01T05:33:34.420Z,0.63
2017-12-01T05:34:37.700Z,0.67
2017-12-01T05:35:40.702Z,0.61
2017-12-01T05:36:43.701Z,0.60
2017-12-01T05:37:46.917Z,0.58
2017-12-01T05:38:49.878Z,0.66
2017-12-01T05:39:52.884Z,0.56
2017-12-01T05:40:56.131Z,0.64
2017-12-01T05:41:59.116Z,0.48
2017-12-01T05:43:02.122Z,0.53
2017-12-01T05:44:05.069Z,0.53
2017-12-01T05:45:08.063Z,0.39
2017-12-01T05:46:10.991Z,0.38
2017-12-01T05:47:14.257Z,0.49
2017-12-01T05:48:17.253Z,0.54
2017-12-01T05:49:20.305Z,0.56
2017-12-01T05:50:23.318Z,0.51
2017-12-01T05:51:26.294Z,0.63
2017-12-01T05:52:29.339Z,0.43
2017-12-01T05:53:32.913Z,0.39
2017-12-01T05:54:35.811Z,0.50
2017-12-01T05:55:38.721Z,0.57
2017-12-01T05:56:41.570Z,0.46
2017-12-01T05:57:44.504Z,0.46
2017-12-01T05:58:47.448Z,0.51
2017-12-01T05:59:50.806Z,0.54
2017-12-01T06:00:53.707Z,0.53
2017-12-01T06:01:57.579Z,0.46
2017-12-01T06:03:00.830Z,0.32
2017-12-01T06:04:03.739Z,0.32
2017-12-01T06:05:06.711Z,0.40
2017-12-01T06:06:09.859Z,0.31
2017-12-01T06:07:12.771Z,0.36
2017-12-01T06:08:15.642Z,0.39
2017-12-01T06:09:18.581Z,0.42
2017-12-01T06:10:21.427Z,0.49
2017-12-01T06:11:24.397Z,0.55
2017-12-01T06:12:27.772Z,0.51
2017-12-01T06:13:30.676Z,0.53
2017-12-01T06:14:33.678Z,0.36
2017-12-01T06:15:36.618Z,0.43
2017-12-01T06:16:39.653Z,0.46
2017-12-01T06:17:42.599Z,0.42
2017-12-01T06:18:46.025Z,0.43
2017-12-01T06:19:49.030Z,0.50
2017-12-01T06:20:51.957Z,0.46
2017-12-01T06:21:54.915Z,0.59
2017-12-01T06:22:57.918Z,0.55
2017-12-01T06:24:00.884Z,0.45
2017-12-01T06:25:03.905Z,0.44
2017-12-01T06:26:06.942Z,0.44
2017-12-01T06:27:09.958Z,0.32
2017-12-01T06:28:12.951Z,0.32
2017-12-01T06:29:15.982Z,0.39
2017-12-01T06:30:18.993Z,0.45
2017-12-01T06:31:22.269Z,0.40
2017-12-01T06:32:25.246Z,0.38
2017-12-01T06:33:29.306Z,0.46
2017-12-01T06:34:32.325Z,0.38
2017-12-01T06:35:35.797Z,0.45
2017-12-01T06:36:38.789Z,0.47
2017-12-01T06:37:41.725Z,0.46
2017-12-01T06:38:44.667Z,0.33
2017-12-01T06:39:47.662Z,0.36
2017-12-01T06:40:51.213Z,0.35
2017-12-01T06:41:54.775Z,0.44
2017-12-01T06:42:58.591Z,0.48
2017-12-01T06:44:01.517Z,0.74
2017-12-01T06:45:04.529Z,0.72
2017-12-01T06:46:07.455Z,0.62
2017-12-01T06:47:10.316Z,0.49
2017-12-01T06:48:13.613Z,0.45
2017-12-01T06:49:16.480Z,0.62
2017-12-01T06:50:19.375Z,0.55
2017-12-01T06:51:22.308Z,0.44
2017-12-01T06:52:25.269Z,0.53
2017-12-01T06:53:28.245Z,0.45
2017-12-01T06:54:31.219Z,0.41
2017-12-01T06:55:34.234Z,0.54
2017-12-01T06:56:37.729Z,0.54
2017-12-01T06:57:40.966Z,0.47
2017-12-01T06:58:43.943Z,0.51
2017-12-01T06:59:47.277Z,0.68
2017-12-01T07:00:50.273Z,0.54
2017-12-01T07:01:53.284Z,0.61
2017-12-01T07:02:56.314Z,0.44
2017-12-01T07:03:59.307Z,0.45
2017-12-01T07:05:02.244Z,0.41
2017-12-01T07:06:05.863Z,0.44
2017-12-01T07:07:08.964Z,0.59
2017-12-01T07:08:11.969Z,0.49
2017-12-01T07:09:14.921Z,0.48
2017-12-01T07:10:17.971Z,0.62
2017-12-01T07:11:20.924Z,0.67
2017-12-01T07:12:25.660Z,0.64
2017-12-01T07:13:28.663Z,0.45
2017-12-01T07:14:31.715Z,0.64
2017-12-01T07:15:35.076Z,0.51
2017-12-01T07:16:38.034Z,0.58
2017-12-01T07:17:41.612Z,0.72
2017-12-01T07:18:45.402Z,0.47
2017-12-01T07:19:48.436Z,0.64
2017-12-01T07:20:51.853Z,0.68
2017-12-01T07:21:55.049Z,0.67
2017-12-01T07:22:57.994Z,0.66
2017-12-01T07:24:01.338Z,0.56
2017-12-01T07:25:04.751Z,0.46
2017-12-01T07:26:07.728Z,0.54
2017-12-01T07:27:11.944Z,0.54
2017-12-01T07:28:14.890Z,0.72
2017-12-01T07:29:17.882Z,0.71
2017-12-01T07:30:20.876Z,0.64
2017-12-01T07:31:23.861Z,0.57
2017-12-01T07:32:27.899Z,0.70
2017-12-01T07:33:30.861Z,0.59
2017-12-01T07:34:33.902Z,0.61
2017-12-01T07:35:36.860Z,0.79
2017-12-01T07:36:40.219Z,0.78
2017-12-01T07:37:43.289Z,0.82
2017-12-01T07:38:46.482Z,0.68
2017-12-01T07:39:49.643Z,0.77
2017-12-01T07:40:52.747Z,0.71
2017-12-01T07:41:55.821Z,0.60
2017-12-01T07:42:59.211Z,0.70
2017-12-01T07:44:02.346Z,0.73
2017-12-01T07:45:05.679Z,0.70
2017-12-01T07:46:08.709Z,0.74
2017-12-01T07:47:11.755Z,0.83
2017-12-01T07:48:14.795Z,0.73
2017-12-01T07:49:18.328Z,0.68
2017-12-01T07:50:21.499Z,0.67
2017-12-01T07:51:24.582Z,0.60
2017-12-01T07:52:27.675Z,0.61
2017-12-01T07:53:30.839Z,0.73
2017-12-01T07:54:34.033Z,0.96
2017-12-01T07:55:37.588Z,0.89
2017-12-01T07:56:40.788Z,0.69
2017-12-01T07:57:43.913Z,0.59
2017-12-01T07:58:47.030Z,0.68
2017-12-01T07:59:50.157Z,0.74
2017-12-01T08:00:53.324Z,0.64
2017-12-01T08:01:57.255Z,0.68
2017-12-01T08:03:02.472Z,0.72
2017-12-01T08:04:05.590Z,0.76
2017-12-01T08:05:08.744Z,0.81
2017-12-01T08:06:12.093Z,0.76
2017-12-01T08:07:19.084Z,0.72
2017-12-01T08:08:22.599Z,0.80
2017-12-01T08:09:25.707Z,0.77
2017-12-01T08:10:28.793Z,0.74
2017-12-01T08:11:32.256Z,0.74
2017-12-01T08:12:35.356Z,0.73
2017-12-01T08:13:38.524Z,0.76
2017-12-01T08:14:42.023Z,0.79
2017-12-01T08:15:45.191Z,0.80
2017-12-01T08:16:48.297Z,0.86
2017-12-01T08:17:52.509Z,0.91
2017-12-01T08:18:55.919Z,0.92
2017-12-01T08:19:59.076Z,0.95
2017-12-01T08:21:02.938Z,0.95
2017-12-01T08:22:06.229Z,1.12
2017-12-01T08:23:09.298Z,1.21
2017-12-01T08:24:12.411Z,1.01
2017-12-01T08:25:15.571Z,0.85
2017-12-01T08:26:18.633Z,0.80
2017-12-01T08:27:22.155Z,0.81
2017-12-01T08:28:25.214Z,0.80
2017-12-01T08:29:28.340Z,0.80
2017-12-01T08:30:31.447Z,0.83
2017-12-01T08:31:34.636Z,0.80
2017-12-01T08:32:37.756Z,0.85
2017-12-01T08:33:41.151Z,0.85
2017-12-01T08:34:44.130Z,0.81
2017-12-01T08:35:47.106Z,0.70
2017-12-01T08:36:50.033Z,0.73
2017-12-01T08:37:52.979Z,0.77
2017-12-01T08:38:55.957Z,0.82
2017-12-01T08:39:59.168Z,0.86
2017-12-01T08:41:02.275Z,0.87
2017-12-01T08:42:05.247Z,0.88
2017-12-01T08:43:08.208Z,0.77
2017-12-01T08:44:11.220Z,0.75
2017-12-01T08:45:14.360Z,0.74
2017-12-01T08:46:17.793Z,0.79
2017-12-01T08:47:20.762Z,0.82
2017-12-01T08:48:23.768Z,0.94
2017-12-01T08:49:27.033Z,0.92
2017-12-01T08:50:29.987Z,0.87
2017-12-01T08:51:33.272Z,0.81
2017-12-01T08:52:36.696Z,1.24
2017-12-01T08:53:39.670Z,1.26
2017-12-01T08:54:42.721Z,1.43
2017-12-01T08:55:45.725Z,1.31
2017-12-01T08:56:48.726Z,1.07
2017-12-01T08:57:51.761Z,1.09
2017-12-01T08:58:55.168Z,1.18
2017-12-01T08:59:58.316Z,1.09
2017-12-01T09:01:01.421Z,1.14
2017-12-01T09:02:04.629Z,1.04
2017-12-01T09:03:07.596Z,1.06
2017-12-01T09:04:10.570Z,1.18
2017-12-01T09:05:14.032Z,1.38
2017-12-01T09:06:17.073Z,1.22
2017-12-01T09:07:20.180Z,1.16
2017-12-01T09:08:23.154Z,1.24
2017-12-01T09:09:26.122Z,1.25
2017-12-01T09:10:29.377Z,1.30
2017-12-01T09:11:32.720Z,1.37
2017-12-01T09:12:35.801Z,1.14
2017-12-01T09:13:38.847Z,1.18
2017-12-01T09:14:41.837Z,1.37
2017-12-01T09:15:44.807Z,1.33
2017-12-01T09:16:47.744Z,1.20
2017-12-01T09:17:51.168Z,1.22
2017-12-01T09:18:55.061Z,1.24
2017-12-01T09:19:58.086Z,1.45
2017-12-01T09:21:01.094Z,1.54
2017-12-01T09:22:04.186Z,1.30
2017-12-01T09:23:07.243Z,1.18
2017-12-01T09:24:11.302Z,1.30
2017-12-01T09:25:14.656Z,1.32
2017-12-01T09:26:17.666Z,1.42
2017-12-01T09:27:20.718Z,1.40
2017-12-01T09:28:23.855Z,1.41
2017-12-01T09:29:26.802Z,1.48
2017-12-01T09:30:30.182Z,1.45
2017-12-01T09:31:33.463Z,1.48
2017-12-01T09:32:36.506Z,1.42
2017-12-01T09:33:39.473Z,1.43
2017-12-01T09:34:42.507Z,1.42
2017-12-01T09:35:45.548Z,1.44
2017-12-01T09:36:48.853Z,1.43
2017-12-01T09:37:51.850Z,1.49
2017-12-01T09:38:54.913Z,1.22
2017-12-01T09:39:57.818Z,1.31
2017-12-01T09:41:00.691Z,1.33
2017-12-01T09:42:03.946Z,1.46
2017-12-01T09:43:08.310Z,1.54
2017-12-01T09:44:13.877Z,1.78
2017-12-01T09:45:16.801Z,2.04
2017-12-01T09:46:19.700Z,2.18
2017-12-01T09:47:22.764Z,1.95
2017-12-01T09:48:25.771Z,1.54
2017-12-01T09:49:29.024Z,1.73
2017-12-01T09:50:32.028Z,2.03
2017-12-01T09:51:34.994Z,2.07
2017-12-01T09:52:37.988Z,1.69
2017-12-01T09:53:41.040Z,1.87
2017-12-01T09:54:44.013Z,2.28
2017-12-01T09:55:47.300Z,1.53
2017-12-01T09:56:50.280Z,1.59
2017-12-01T09:57:53.302Z,1.84
2017-12-01T09:58:56.320Z,1.78
2017-12-01T09:59:59.286Z,1.72
2017-12-01T10:01:02.273Z,1.75
2017-12-01T10:02:05.246Z,1.92
2017-12-01T10:03:08.827Z,2.20
2017-12-01T10:04:11.831Z,2.54
2017-12-01T10:05:14.812Z,2.73
2017-12-01T10:06:17.841Z,2.18
2017-12-01T10:07:20.818Z,1.83
2017-12-01T10:08:23.804Z,1.79
2017-12-01T10:09:26.819Z,1.85
2017-12-01T10:10:29.938Z,1.81
2017-12-01T10:11:32.945Z,1.77
2017-12-01T10:12:36.251Z,2.01
2017-12-01T10:13:39.263Z,1.85
2017-12-01T10:14:42.288Z,2.05
2017-12-01T10:15:45.393Z,2.02
2017-12-01T10:16:48.348Z,2.02
2017-12-01T10:17:51.660Z,1.98
2017-12-01T10:18:55.398Z,1.97
2017-12-01T10:19:59.533Z,2.06
2017-12-01T10:21:02.553Z,1.86
2017-12-01T10:22:05.596Z,1.98
2017-12-01T10:23:08.601Z,2.32
2017-12-01T10:24:11.547Z,2.35
2017-12-01T10:25:15.004Z,2.07
2017-12-01T10:26:18.031Z,1.82
2017-12-01T10:27:21.101Z,2.18
2017-12-01T10:28:24.129Z,1.81
2017-12-01T10:29:27.140Z,2.03
2017-12-01T10:30:30.549Z,2.22
2017-12-01T10:31:33.537Z,2.35
2017-12-01T10:32:36.652Z,2.14
2017-12-01T10:33:39.732Z,2.45
2017-12-01T10:34:42.750Z,2.54
2017-12-01T10:35:45.825Z,2.56
2017-12-01T10:36:49.193Z,2.35
2017-12-01T10:37:52.250Z,2.09
2017-12-01T10:38:55.258Z,2.26
2017-12-01T10:39:59.239Z,2.37
2017-12-01T10:41:02.297Z,2.22
2017-12-01T10:42:05.299Z,2.21
2017-12-01T10:43:08.579Z,2.22
2017-12-01T10:44:11.617Z,2.05
2017-12-01T10:45:23.206Z,2.34
2017-12-01T10:46:26.250Z,2.09
2017-12-01T10:47:29.208Z,2.13
2017-12-01T10:48:32.248Z,2.20
2017-12-01T10:49:35.580Z,2.04
2017-12-01T10:50:38.528Z,2.15
2017-12-01T10:51:41.474Z,2.16
2017-12-01T10:52:44.446Z,2.31
2017-12-01T10:53:47.438Z,2.47
2017-12-01T10:54:50.450Z,2.13
2017-12-01T10:55:53.808Z,2.28
2017-12-01T10:56:56.772Z,2.21
2017-12-01T10:57:59.772Z,2.39
2017-12-01T10:59:02.737Z,2.64
2017-12-01T11:00:05.651Z,2.60
2017-12-01T11:01:08.683Z,1.85
2017-12-01T11:02:12.137Z,2.26
2017-12-01T11:03:15.290Z,2.46
2017-12-01T11:04:18.692Z,2.00
2017-12-01T11:05:21.703Z,2.11
2017-12-01T11:06:25.211Z,2.03
2017-12-01T11:07:28.316Z,2.41
2017-12-01T11:08:31.554Z,2.29
2017-12-01T11:09:34.575Z,2.15
2017-12-01T11:10:37.550Z,2.06
2017-12-01T11:11:40.467Z,2.14
2017-12-01T11:12:43.426Z,1.89
2017-12-01T11:13:46.400Z,1.84
2017-12-01T11:14:49.687Z,1.79
2017-12-01T11:15:52.511Z,1.77
2017-12-01T11:16:55.396Z,2.25
2017-12-01T11:17:58.474Z,2.20
2017-12-01T11:19:01.516Z,2.41
2017-12-01T11:20:04.521Z,2.34
2017-12-01T11:21:08.020Z,2.23
2017-12-01T11:22:11.014Z,2.33
2017-12-01T11:23:13.970Z,1.95
2017-12-01T11:24:17.037Z,2.12
2017-12-01T11:25:20.016Z,2.21
2017-12-01T11:26:22.933Z,2.19
2017-12-01T11:27:26.224Z,2.24
2017-12-01T11:28:29.202Z,2.04
2017-12-01T11:29:32.162Z,2.08
2017-12-01T11:30:35.104Z,1.93
2017-12-01T11:31:38.135Z,2.19
2017-12-01T11:32:41.148Z,1.89
2017-12-01T11:33:44.572Z,2.10
2017-12-01T11:34:47.568Z,1.79
2017-12-01T11:35:50.926Z,1.61
2017-12-01T11:36:53.903Z,1.79
2017-12-01T11:37:56.860Z,1.89
2017-12-01T11:38:59.843Z,1.90
2017-12-01T11:40:03.949Z,1.92
2017-12-01T11:41:07.422Z,1.83
2017-12-01T11:42:11.004Z,1.86
2017-12-01T11:43:13.984Z,2.05
2017-12-01T11:44:16.942Z,2.24
2017-12-01T11:45:20.186Z,1.82
2017-12-01T11:46:23.544Z,1.81
2017-12-01T11:47:26.493Z,2.12
2017-12-01T11:48:29.584Z,2.20
2017-12-01T11:49:32.531Z,1.91
2017-12-01T11:50:35.686Z,1.91
2017-12-01T11:51:38.600Z,1.96
2017-12-01T11:52:44.088Z,1.75
2017-12-01T11:53:47.422Z,1.79
2017-12-01T11:54:50.653Z,1.81
2017-12-01T11:55:54.036Z,1.90
2017-12-01T11:56:57.026Z,2.22
2017-12-01T11:57:59.992Z,1.96
2017-12-01T11:59:03.889Z,2.23
2017-12-01T12:00:06.947Z,2.23
2017-12-01T12:01:09.944Z,2.28
2017-12-01T12:02:12.773Z,2.33
2017-12-01T12:03:17.477Z,2.31
2017-12-01T12:04:20.357Z,2.37
2017-12-01T12:05:23.166Z,2.35
2017-12-01T12:06:25.994Z,2.48
2017-12-01T12:07:28.917Z,2.70
2017-12-01T12:08:31.875Z,2.45
2017-12-01T12:09:34.975Z,2.13
2017-12-01T12:10:38.347Z,2.61
2017-12-01T12:11:41.300Z,2.90
2017-12-01T12:12:44.292Z,2.94
2017-12-01T12:13:47.243Z,3.08
2017-12-01T12:14:50.221Z,3.24
2017-12-01T12:15:53.344Z,2.84
2017-12-01T12:16:56.716Z,2.85
2017-12-01T12:17:59.604Z,2.84
2017-12-01T12:19:02.673Z,2.94
2017-12-01T12:20:05.614Z,2.40
2017-12-01T12:21:08.498Z,2.62
2017-12-01T12:22:11.422Z,2.67
2017-12-01T12:23:14.697Z,2.57
2017-12-01T12:24:17.678Z,2.71
2017-12-01T12:25:20.731Z,2.72
2017-12-01T12:26:23.723Z,2.75
2017-12-01T12:27:27.524Z,2.20
2017-12-01T12:28:30.425Z,2.12
2017-12-01T12:29:33.649Z,2.40
2017-12-01T12:30:36.602Z,2.97
2017-12-01T12:31:39.573Z,2.61
2017-12-01T12:32:42.552Z,2.88
2017-12-01T12:33:45.502Z,2.98
2017-12-01T12:34:48.460Z,3.04
2017-12-01T12:35:51.718Z,2.76
2017-12-01T12:36:54.664Z,2.56
2017-12-01T12:37:57.658Z,2.55
2017-12-01T12:39:00.562Z,2.36
2017-12-01T12:40:03.568Z,2.34
2017-12-01T12:41:06.466Z,2.31
2017-12-01T12:42:09.834Z,2.31
2017-12-01T12:43:12.763Z,2.50
2017-12-01T12:44:15.852Z,2.31
2017-12-01T12:45:19.133Z,2.42
2017-12-01T12:46:22.320Z,2.44
2017-12-01T12:47:25.464Z,2.63
2017-12-01T12:48:28.954Z,2.33
2017-12-01T12:49:32.583Z,2.39
2017-12-01T12:50:35.579Z,2.37
2017-12-01T12:51:38.629Z,2.18
2017-12-01T12:52:41.581Z,2.63
2017-12-01T12:53:44.632Z,2.47
2017-12-01T12:54:48.073Z,2.40
2017-12-01T12:55:51.083Z,2.66
2017-12-01T12:56:54.151Z,2.52
2017-12-01T12:57:57.290Z,2.54
2017-12-01T12:59:00.326Z,2.39
2017-12-01T13:00:03.258Z,2.48
2017-12-01T13:01:06.523Z,2.45
2017-12-01T13:02:11.894Z,2.36
2017-12-01T13:03:14.902Z,1.98
2017-12-01T13:04:18.004Z,1.94
2017-12-01T13:05:20.947Z,2.17
2017-12-01T13:06:23.977Z,2.37
2017-12-01T13:07:27.246Z,2.25
2017-12-01T13:08:30.125Z,2.14
2017-12-01T13:09:33.236Z,2.17
2017-12-01T13:10:36.181Z,2.09
2017-12-01T13:11:39.112Z,2.25
2017-12-01T13:12:42.142Z,2.20
2017-12-01T13:13:45.522Z,2.15
2017-12-01T13:14:48.654Z,2.36
2017-12-01T13:15:51.671Z,2.23
2017-12-01T13:16:54.661Z,2.26
2017-12-01T13:17:57.598Z,2.01
2017-12-01T13:19:00.595Z,2.14
2017-12-01T13:20:03.896Z,2.30
2017-12-01T13:21:07.232Z,2.41
2017-12-01T13:22:11.338Z,2.47
2017-12-01T13:23:14.328Z,2.48
2017-12-01T13:24:18.396Z,2.34
2017-12-01T13:25:21.300Z,2.29
2017-12-01T13:26:24.582Z,2.27
2017-12-01T13:27:27.979Z,2.03
2017-12-01T13:28:30.961Z,2.07
2017-12-01T13:29:33.859Z,1.96
2017-12-01T13:30:36.846Z,2.01
2017-12-01T13:31:39.821Z,2.06
2017-12-01T13:32:43.387Z,1.88
2017-12-01T13:33:46.655Z,1.94
2017-12-01T13:34:49.946Z,1.96
2017-12-01T13:35:53.023Z,1.84
2017-12-01T13:36:55.943Z,1.75
2017-12-01T13:37:58.776Z,1.68
2017-12-01T13:39:01.592Z,1.83
2017-12-01T13:40:04.441Z,1.94
2017-12-01T13:41:07.398Z,2.20
2017-12-01T13:42:10.313Z,2.28
2017-12-01T13:43:13.251Z,2.11
2017-12-01T13:44:16.235Z,2.07
2017-12-01T13:45:19.478Z,1.84
2017-12-01T13:46:22.566Z,2.33
2017-12-01T13:47:25.591Z,1.98
2017-12-01T13:48:28.562Z,2.02
2017-12-01T13:49:31.524Z,1.90
2017-12-01T13:50:34.598Z,1.85
2017-12-01T13:51:38.088Z,1.86
2017-12-01T13:52:41.235Z,2.00
2017-12-01T13:53:44.227Z,2.04
2017-12-01T13:54:47.328Z,2.15
2017-12-01T13:55:50.412Z,2.14
2017-12-01T13:56:53.341Z,1.90
2017-12-01T13:57:56.827Z,1.74
2017-12-01T13:58:59.800Z,1.71
2017-12-01T14:00:02.800Z,1.97